createdAt,value
2019-03-30T19:42:08.685Z,11.80
2019-03-30T19:44:38.806Z,11.70
2019-03-30T19:47:08.902Z,11.60
2019-03-30T19:49:39.049Z,11.60
2019-03-30T19:52:09.159Z,11.60
2019-03-30T19:54:39.277Z,11.50
2019-03-30T19:57:09.416Z,11.50
2019-03-30T19:59:39.562Z,11.50
2019-03-30T20:02:09.746Z,11.40
2019-03-30T20:04:39.835Z,11.40
2019-03-30T20:07:09.942Z,11.30
2019-03-30T20:09:40.071Z,11.30
2019-03-30T20:12:10.305Z,11.20
2019-03-30T20:14:40.480Z,11.20
2019-03-30T20:17:10.584Z,11.10
2019-03-30T20:19:40.673Z,11.10
2019-03-30T20:22:10.736Z,11.00
2019-03-30T20:24:41.015Z,11.00
2019-03-30T20:27:11.132Z,10.90
2019-03-30T20:29:41.250Z,10.90
2019-03-30T20:32:11.391Z,10.90
2019-03-30T20:34:41.515Z,10.90
2019-03-30T20:37:11.599Z,10.90
2019-03-30T20:39:41.718Z,10.90
2019-03-30T20:42:11.826Z,10.90
2019-03-30T20:44:42.014Z,10.80
2019-03-30T20:47:12.139Z,10.80
2019-03-30T20:49:42.229Z,10.80
2019-03-30T20:52:12.363Z,10.70
2019-03-30T20:54:42.464Z,10.70
2019-03-30T20:57:12.584Z,10.70
2019-03-30T20:59:42.686Z,10.60
2019-03-30T21:02:12.804Z,10.60
2019-03-30T21:04:42.887Z,10.60
2019-03-30T21:07:12.983Z,10.50
2019-03-30T21:09:43.116Z,10.50
2019-03-30T21:12:13.251Z,10.40
2019-03-30T21:14:43.364Z,10.40
2019-03-30T21:17:13.461Z,10.30
2019-03-30T21:19:43.577Z,10.30
2019-03-30T21:22:13.774Z,10.20
2019-03-30T21:24:43.884Z,10.30
2019-03-30T21:27:13.970Z,10.20
2019-03-30T21:29:54.592Z,10.10
2019-03-30T21:32:16.310Z,10.10
2019-03-30T21:34:46.378Z,10.10
2019-03-30T21:37:16.475Z,10.10
2019-03-30T21:39:46.728Z,10.00
2019-03-30T21:42:16.815Z,10.00
2019-03-30T21:44:46.981Z,9.90
2019-03-30T21:47:17.421Z,9.90
2019-03-30T21:49:47.781Z,9.90
2019-03-30T21:52:18.061Z,9.80
2019-03-30T21:54:48.217Z,9.80
2019-03-30T21:57:18.301Z,9.80
2019-03-30T21:59:48.646Z,9.70
2019-03-30T22:02:18.823Z,9.70
2019-03-30T22:04:49.044Z,9.60
2019-03-30T22:07:19.185Z,9.60
2019-03-30T22:09:49.674Z,9.50
2019-03-30T22:12:19.758Z,9.50
2019-03-30T22:14:50.333Z,9.40
2019-03-30T22:17:20.421Z,9.40
2019-03-30T22:19:50.505Z,9.40
2019-03-30T22:22:20.644Z,9.30
2019-03-30T22:24:50.767Z,9.30
2019-03-30T22:27:20.886Z,9.30
2019-03-30T22:29:51.016Z,9.30
2019-03-30T22:32:21.378Z,9.30
2019-03-30T22:34:51.457Z,9.30
2019-03-30T22:37:21.546Z,9.30
2019-03-30T22:39:51.646Z,9.30
2019-03-30T22:42:21.783Z,9.30
2019-03-30T22:44:51.896Z,9.30
2019-03-30T22:47:21.922Z,9.30
2019-03-30T22:49:51.999Z,9.30
2019-03-30T22:52:22.116Z,9.20
2019-03-30T22:54:52.193Z,9.20
2019-03-30T22:57:22.290Z,9.20
2019-03-30T22:59:52.418Z,9.20
2019-03-30T23:02:22.494Z,9.10
2019-03-30T23:04:52.577Z,9.10
2019-03-30T23:07:22.685Z,9.00
2019-03-30T23:09:52.779Z,9.00
2019-03-30T23:12:22.871Z,9.00
2019-03-30T23:14:52.988Z,8.90
2019-03-30T23:17:23.075Z,8.90
2019-03-30T23:19:53.155Z,8.80
2019-03-30T23:22:23.252Z,8.80
2019-03-30T23:24:53.360Z,8.70
2019-03-30T23:27:23.446Z,8.70
2019-03-30T23:29:53.608Z,8.70
2019-03-30T23:32:23.754Z,8.60
2019-03-30T23:34:53.964Z,8.60
2019-03-30T23:37:24.051Z,8.60
2019-03-30T23:39:54.162Z,8.60
2019-03-30T23:42:24.270Z,8.50
2019-03-30T23:44:54.347Z,8.50
2019-03-30T23:47:24.511Z,8.50
2019-03-30T23:49:54.597Z,8.50
2019-03-30T23:52:24.706Z,8.50
2019-03-30T23:54:54.919Z,8.50
2019-03-30T23:57:25.007Z,8.40
2019-03-30T23:59:55.116Z,8.40
